sensor_id;sensor_type;location;lat;lon;timestamp;P1;durP1;ratioP1;P2;durP2;ratioP2
41546;SDS011;27271;45.412;10.852;2023-03-08T00:02:24;21.20;;;9.80;;
41546;SDS011;27271;45.412;10.852;2023-03-08T00:05:47;21.48;;;9.02;;
41546;SDS011;27271;45.412;10.852;2023-03-08T00:09:09;15.43;;;8.38;;
41546;SDS011;27271;45.412;10.852;2023-03-08T00:12:31;21.27;;;8.95;;
41546;SDS011;27271;45.412;10.852;2023-03-08T00:15:53;15.88;;;8.15;;
41546;SDS011;27271;45.412;10.852;2023-03-08T00:19:18;17.58;;;8.60;;
41546;SDS011;27271;45.412;10.852;2023-03-08T00:22:41;16.42;;;7.47;;
41546;SDS011;27271;45.412;10.852;2023-03-08T00:26:03;17.65;;;8.55;;
41546;SDS011;27271;45.412;10.852;2023-03-08T00:29:25;18.58;;;7.95;;
41546;SDS011;27271;45.412;10.852;2023-03-08T00:32:50;19.38;;;7.63;;
41546;SDS011;27271;45.412;10.852;2023-03-08T00:36:16;19.92;;;7.72;;
41546;SDS011;27271;45.412;10.852;2023-03-08T00:39:38;17.73;;;7.65;;
41546;SDS011;27271;45.412;10.852;2023-03-08T00:43:00;14.73;;;7.63;;
41546;SDS011;27271;45.412;10.852;2023-03-08T00:46:23;21.80;;;7.40;;
41546;SDS011;27271;45.412;10.852;2023-03-08T00:49:46;22.38;;;7.65;;
41546;SDS011;27271;45.412;10.852;2023-03-08T00:53:08;21.27;;;7.40;;
41546;SDS011;27271;45.412;10.852;2023-03-08T00:56:30;15.35;;;7.28;;
41546;SDS011;27271;45.412;10.852;2023-03-08T00:59:52;15.93;;;8.13;;
41546;SDS011;27271;45.412;10.852;2023-03-08T01:03:15;14.38;;;7.32;;
41546;SDS011;27271;45.412;10.852;2023-03-08T01:06:38;16.65;;;8.73;;
41546;SDS011;27271;45.412;10.852;2023-03-08T01:10:03;18.77;;;9.15;;
41546;SDS011;27271;45.412;10.852;2023-03-08T01:13:30;16.65;;;8.70;;
41546;SDS011;27271;45.412;10.852;2023-03-08T01:16:54;21.35;;;8.85;;
41546;SDS011;27271;45.412;10.852;2023-03-08T01:20:16;19.45;;;8.30;;
41546;SDS011;27271;45.412;10.852;2023-03-08T01:23:38;25.77;;;8.90;;
41546;SDS011;27271;45.412;10.852;2023-03-08T01:27:03;19.10;;;8.98;;
41546;SDS011;27271;45.412;10.852;2023-03-08T01:30:26;18.08;;;8.35;;
41546;SDS011;27271;45.412;10.852;2023-03-08T01:33:48;21.45;;;8.27;;
41546;SDS011;27271;45.412;10.852;2023-03-08T01:37:11;17.80;;;7.30;;
41546;SDS011;27271;45.412;10.852;2023-03-08T01:40:35;20.55;;;7.35;;
41546;SDS011;27271;45.412;10.852;2023-03-08T01:43:57;16.05;;;8.48;;
41546;SDS011;27271;45.412;10.852;2023-03-08T01:47:20;20.02;;;8.75;;
41546;SDS011;27271;45.412;10.852;2023-03-08T01:51:03;15.25;;;7.18;;
41546;SDS011;27271;45.412;10.852;2023-03-08T01:54:28;13.30;;;7.45;;
41546;SDS011;27271;45.412;10.852;2023-03-08T01:57:54;16.17;;;8.20;;
41546;SDS011;27271;45.412;10.852;2023-03-08T02:01:18;16.88;;;8.18;;
41546;SDS011;27271;45.412;10.852;2023-03-08T02:04:43;20.48;;;8.48;;
41546;SDS011;27271;45.412;10.852;2023-03-08T02:08:06;18.23;;;8.48;;
41546;SDS011;27271;45.412;10.852;2023-03-08T02:11:32;17.42;;;7.75;;
41546;SDS011;27271;45.412;10.852;2023-03-08T02:14:55;22.35;;;7.93;;
41546;SDS011;27271;45.412;10.852;2023-03-08T02:18:19;19.75;;;8.15;;
41546;SDS011;27271;45.412;10.852;2023-03-08T02:21:42;18.80;;;8.77;;
41546;SDS011;27271;45.412;10.852;2023-03-08T02:25:10;20.15;;;8.13;;
41546;SDS011;27271;45.412;10.852;2023-03-08T02:28:38;16.30;;;8.18;;
41546;SDS011;27271;45.412;10.852;2023-03-08T02:32:00;21.08;;;8.10;;
41546;SDS011;27271;45.412;10.852;2023-03-08T02:35:23;14.48;;;6.82;;
41546;SDS011;27271;45.412;10.852;2023-03-08T02:38:45;18.40;;;7.95;;
41546;SDS011;27271;45.412;10.852;2023-03-08T02:42:07;25.17;;;8.43;;
41546;SDS011;27271;45.412;10.852;2023-03-08T02:45:29;15.70;;;7.47;;
41546;SDS011;27271;45.412;10.852;2023-03-08T02:48:54;16.35;;;7.63;;
41546;SDS011;27271;45.412;10.852;2023-03-08T02:52:16;16.45;;;8.02;;
41546;SDS011;27271;45.412;10.852;2023-03-08T02:55:38;22.35;;;8.40;;
41546;SDS011;27271;45.412;10.852;2023-03-08T02:59:03;20.35;;;8.70;;
41546;SDS011;27271;45.412;10.852;2023-03-08T03:02:26;15.65;;;7.57;;
41546;SDS011;27271;45.412;10.852;2023-03-08T03:05:48;18.67;;;8.70;;
41546;SDS011;27271;45.412;10.852;2023-03-08T03:09:14;15.77;;;8.20;;
41546;SDS011;27271;45.412;10.852;2023-03-08T03:12:37;19.70;;;8.48;;
41546;SDS011;27271;45.412;10.852;2023-03-08T03:16:06;15.27;;;7.65;;
41546;SDS011;27271;45.412;10.852;2023-03-08T03:19:30;18.08;;;8.05;;
41546;SDS011;27271;45.412;10.852;2023-03-08T03:22:52;19.33;;;7.90;;
41546;SDS011;27271;45.412;10.852;2023-03-08T03:26:21;17.23;;;8.15;;
41546;SDS011;27271;45.412;10.852;2023-03-08T03:29:47;20.48;;;7.90;;
41546;SDS011;27271;45.412;10.852;2023-03-08T03:33:11;16.52;;;7.60;;
41546;SDS011;27271;45.412;10.852;2023-03-08T03:36:33;13.38;;;6.93;;
41546;SDS011;27271;45.412;10.852;2023-03-08T03:39:55;14.48;;;7.00;;
41546;SDS011;27271;45.412;10.852;2023-03-08T03:43:18;12.50;;;7.35;;
41546;SDS011;27271;45.412;10.852;2023-03-08T03:46:41;19.45;;;7.63;;
41546;SDS011;27271;45.412;10.852;2023-03-08T03:50:05;15.07;;;7.43;;
41546;SDS011;27271;45.412;10.852;2023-03-08T03:53:38;18.48;;;8.15;;
41546;SDS011;27271;45.412;10.852;2023-03-08T03:57:01;16.42;;;6.68;;
41546;SDS011;27271;45.412;10.852;2023-03-08T04:00:28;21.83;;;9.50;;
41546;SDS011;27271;45.412;10.852;2023-03-08T04:04:02;24.30;;;8.85;;
41546;SDS011;27271;45.412;10.852;2023-03-08T04:07:28;15.35;;;8.55;;
41546;SDS011;27271;45.412;10.852;2023-03-08T04:10:53;17.10;;;7.00;;
41546;SDS011;27271;45.412;10.852;2023-03-08T04:14:21;22.63;;;8.85;;
41546;SDS011;27271;45.412;10.852;2023-03-08T04:17:45;22.95;;;8.60;;
41546;SDS011;27271;45.412;10.852;2023-03-08T04:21:08;23.73;;;9.25;;
41546;SDS011;27271;45.412;10.852;2023-03-08T04:24:34;16.80;;;7.57;;
41546;SDS011;27271;45.412;10.852;2023-03-08T04:28:02;27.40;;;9.50;;
41546;SDS011;27271;45.412;10.852;2023-03-08T04:31:26;22.25;;;9.07;;
41546;SDS011;27271;45.412;10.852;2023-03-08T04:34:53;22.17;;;9.55;;
41546;SDS011;27271;45.412;10.852;2023-03-08T04:38:18;18.30;;;8.38;;
41546;SDS011;27271;45.412;10.852;2023-03-08T04:41:43;18.67;;;8.55;;
41546;SDS011;27271;45.412;10.852;2023-03-08T04:45:16;24.83;;;9.35;;
41546;SDS011;27271;45.412;10.852;2023-03-08T04:48:38;23.02;;;9.02;;
41546;SDS011;27271;45.412;10.852;2023-03-08T04:52:01;20.08;;;8.98;;
41546;SDS011;27271;45.412;10.852;2023-03-08T04:55:26;19.10;;;9.45;;
41546;SDS011;27271;45.412;10.852;2023-03-08T04:58:48;20.75;;;8.73;;
41546;SDS011;27271;45.412;10.852;2023-03-08T05:02:14;22.45;;;8.45;;
41546;SDS011;27271;45.412;10.852;2023-03-08T05:05:45;21.35;;;7.60;;
41546;SDS011;27271;45.412;10.852;2023-03-08T05:09:13;17.05;;;6.95;;
41546;SDS011;27271;45.412;10.852;2023-03-08T05:12:38;21.42;;;8.25;;
41546;SDS011;27271;45.412;10.852;2023-03-08T05:16:00;23.02;;;8.00;;
41546;SDS011;27271;45.412;10.852;2023-03-08T05:19:24;17.10;;;7.55;;
41546;SDS011;27271;45.412;10.852;2023-03-08T05:22:49;13.50;;;7.45;;
41546;SDS011;27271;45.412;10.852;2023-03-08T05:26:26;18.80;;;6.93;;
41546;SDS011;27271;45.412;10.852;2023-03-08T05:29:50;16.75;;;6.60;;
41546;SDS011;27271;45.412;10.852;2023-03-08T05:33:13;19.52;;;6.50;;
41546;SDS011;27271;45.412;10.852;2023-03-08T05:36:38;19.10;;;7.35;;
41546;SDS011;27271;45.412;10.852;2023-03-08T05:40:01;18.98;;;6.65;;
41546;SDS011;27271;45.412;10.852;2023-03-08T05:43:28;16.65;;;7.85;;
41546;SDS011;27271;45.412;10.852;2023-03-08T05:46:51;16.60;;;6.95;;
41546;SDS011;27271;45.412;10.852;2023-03-08T05:50:14;16.33;;;6.95;;
41546;SDS011;27271;45.412;10.852;2023-03-08T05:53:39;22.90;;;7.18;;
41546;SDS011;27271;45.412;10.852;2023-03-08T05:57:03;17.50;;;7.32;;
41546;SDS011;27271;45.412;10.852;2023-03-08T06:00:25;18.88;;;7.78;;
41546;SDS011;27271;45.412;10.852;2023-03-08T06:03:50;16.55;;;6.97;;
41546;SDS011;27271;45.412;10.852;2023-03-08T06:07:15;22.90;;;8.20;;
41546;SDS011;27271;45.412;10.852;2023-03-08T06:10:43;16.83;;;7.82;;
41546;SDS011;27271;45.412;10.852;2023-03-08T06:14:06;26.27;;;9.32;;
41546;SDS011;27271;45.412;10.852;2023-03-08T06:17:29;26.42;;;9.45;;
41546;SDS011;27271;45.412;10.852;2023-03-08T06:24:27;71.47;;;25.70;;
41546;SDS011;27271;45.412;10.852;2023-03-08T06:27:53;35.00;;;12.25;;
41546;SDS011;27271;45.412;10.852;2023-03-08T06:31:30;33.40;;;13.05;;
41546;SDS011;27271;45.412;10.852;2023-03-08T06:34:55;26.25;;;11.68;;
41546;SDS011;27271;45.412;10.852;2023-03-08T06:38:17;28.20;;;11.57;;
41546;SDS011;27271;45.412;10.852;2023-03-08T06:41:39;26.08;;;11.32;;
41546;SDS011;27271;45.412;10.852;2023-03-08T06:45:03;30.27;;;12.52;;
41546;SDS011;27271;45.412;10.852;2023-03-08T06:48:25;33.60;;;14.80;;
41546;SDS011;27271;45.412;10.852;2023-03-08T06:51:47;40.90;;;17.42;;
41546;SDS011;27271;45.412;10.852;2023-03-08T06:55:09;40.95;;;16.13;;
41546;SDS011;27271;45.412;10.852;2023-03-08T06:58:32;89.13;;;40.85;;
41546;SDS011;27271;45.412;10.852;2023-03-08T07:01:55;64.90;;;30.77;;
41546;SDS011;27271;45.412;10.852;2023-03-08T07:05:18;28.75;;;11.32;;
41546;SDS011;27271;45.412;10.852;2023-03-08T07:08:40;20.00;;;9.07;;
41546;SDS011;27271;45.412;10.852;2023-03-08T07:12:05;27.10;;;10.90;;
41546;SDS011;27271;45.412;10.852;2023-03-08T07:15:28;20.58;;;8.90;;
41546;SDS011;27271;45.412;10.852;2023-03-08T07:18:51;55.83;;;21.02;;
41546;SDS011;27271;45.412;10.852;2023-03-08T07:22:13;97.03;;;40.13;;
41546;SDS011;27271;45.412;10.852;2023-03-08T07:25:38;47.58;;;20.55;;
41546;SDS011;27271;45.412;10.852;2023-03-08T07:29:00;29.00;;;13.38;;
41546;SDS011;27271;45.412;10.852;2023-03-08T07:32:22;22.83;;;9.98;;
41546;SDS011;27271;45.412;10.852;2023-03-08T07:35:49;18.50;;;9.85;;
41546;SDS011;27271;45.412;10.852;2023-03-08T07:39:11;22.48;;;10.23;;
41546;SDS011;27271;45.412;10.852;2023-03-08T07:42:33;19.75;;;9.32;;
41546;SDS011;27271;45.412;10.852;2023-03-08T07:46:05;20.30;;;9.77;;
41546;SDS011;27271;45.412;10.852;2023-03-08T07:49:27;22.60;;;9.90;;
41546;SDS011;27271;45.412;10.852;2023-03-08T07:52:49;18.02;;;9.02;;
41546;SDS011;27271;45.412;10.852;2023-03-08T07:56:17;19.33;;;8.82;;
41546;SDS011;27271;45.412;10.852;2023-03-08T07:59:40;21.40;;;9.82;;
41546;SDS011;27271;45.412;10.852;2023-03-08T08:03:15;21.10;;;9.70;;
41546;SDS011;27271;45.412;10.852;2023-03-08T08:06:40;20.20;;;9.35;;
41546;SDS011;27271;45.412;10.852;2023-03-08T08:10:02;19.63;;;10.32;;
41546;SDS011;27271;45.412;10.852;2023-03-08T08:13:34;21.67;;;8.68;;
41546;SDS011;27271;45.412;10.852;2023-03-08T08:16:56;20.95;;;9.68;;
41546;SDS011;27271;45.412;10.852;2023-03-08T08:20:21;15.35;;;8.57;;
41546;SDS011;27271;45.412;10.852;2023-03-08T08:23:49;20.55;;;10.45;;
41546;SDS011;27271;45.412;10.852;2023-03-08T08:27:31;21.63;;;9.68;;
41546;SDS011;27271;45.412;10.852;2023-03-08T08:30:59;22.50;;;10.18;;
41546;SDS011;27271;45.412;10.852;2023-03-08T08:34:27;21.13;;;10.13;;
41546;SDS011;27271;45.412;10.852;2023-03-08T08:37:51;20.77;;;10.55;;
41546;SDS011;27271;45.412;10.852;2023-03-08T08:41:15;17.10;;;10.50;;
41546;SDS011;27271;45.412;10.852;2023-03-08T08:44:38;19.40;;;10.95;;
41546;SDS011;27271;45.412;10.852;2023-03-08T08:48:00;18.10;;;10.70;;
41546;SDS011;27271;45.412;10.852;2023-03-08T08:51:22;17.35;;;10.27;;
41546;SDS011;27271;45.412;10.852;2023-03-08T08:54:45;24.92;;;11.48;;
41546;SDS011;27271;45.412;10.852;2023-03-08T08:58:07;26.77;;;11.27;;
41546;SDS011;27271;45.412;10.852;2023-03-08T09:01:30;24.13;;;11.27;;
41546;SDS011;27271;45.412;10.852;2023-03-08T09:04:53;24.10;;;10.98;;
41546;SDS011;27271;45.412;10.852;2023-03-08T09:08:15;26.23;;;12.18;;
41546;SDS011;27271;45.412;10.852;2023-03-08T09:11:37;22.02;;;11.50;;
41546;SDS011;27271;45.412;10.852;2023-03-08T09:15:14;25.52;;;12.32;;
41546;SDS011;27271;45.412;10.852;2023-03-08T09:18:36;27.38;;;12.30;;
41546;SDS011;27271;45.412;10.852;2023-03-08T09:21:58;24.13;;;12.63;;
41546;SDS011;27271;45.412;10.852;2023-03-08T09:25:20;23.00;;;12.48;;
41546;SDS011;27271;45.412;10.852;2023-03-08T09:28:44;20.38;;;12.30;;
41546;SDS011;27271;45.412;10.852;2023-03-08T09:32:06;22.67;;;12.57;;
41546;SDS011;27271;45.412;10.852;2023-03-08T09:35:29;26.65;;;14.43;;
41546;SDS011;27271;45.412;10.852;2023-03-08T09:38:51;25.70;;;13.07;;
41546;SDS011;27271;45.412;10.852;2023-03-08T09:42:15;31.67;;;13.77;;
41546;SDS011;27271;45.412;10.852;2023-03-08T09:45:44;29.05;;;14.52;;
41546;SDS011;27271;45.412;10.852;2023-03-08T09:49:08;26.73;;;14.23;;
41546;SDS011;27271;45.412;10.852;2023-03-08T10:14:12;43.88;;;16.60;;
41546;SDS011;27271;45.412;10.852;2023-03-08T10:17:48;30.92;;;15.57;;
41546;SDS011;27271;45.412;10.852;2023-03-08T10:21:20;30.45;;;16.55;;
41546;SDS011;27271;45.412;10.852;2023-03-08T10:24:50;29.90;;;15.85;;
41546;SDS011;27271;45.412;10.852;2023-03-08T10:28:19;28.98;;;16.50;;
41546;SDS011;27271;45.412;10.852;2023-03-08T10:31:43;30.55;;;14.35;;
41546;SDS011;27271;45.412;10.852;2023-03-08T10:35:07;35.15;;;16.95;;
41546;SDS011;27271;45.412;10.852;2023-03-08T10:38:30;38.25;;;17.77;;
41546;SDS011;27271;45.412;10.852;2023-03-08T10:45:18;35.78;;;15.82;;
41546;SDS011;27271;45.412;10.852;2023-03-08T10:48:43;29.88;;;14.68;;
41546;SDS011;27271;45.412;10.852;2023-03-08T10:52:13;27.52;;;14.57;;
41546;SDS011;27271;45.412;10.852;2023-03-08T10:55:48;31.83;;;15.80;;
41546;SDS011;27271;45.412;10.852;2023-03-08T10:59:31;30.77;;;15.52;;
41546;SDS011;27271;45.412;10.852;2023-03-08T11:03:29;28.38;;;13.98;;
41546;SDS011;27271;45.412;10.852;2023-03-08T11:06:44;26.30;;;15.32;;
41546;SDS011;27271;45.412;10.852;2023-03-08T11:10:14;31.85;;;15.60;;
41546;SDS011;27271;45.412;10.852;2023-03-08T11:13:39;33.50;;;14.82;;
41546;SDS011;27271;45.412;10.852;2023-03-08T11:20:41;28.98;;;14.60;;
41546;SDS011;27271;45.412;10.852;2023-03-08T11:38:56;28.70;;;12.38;;
41546;SDS011;27271;45.412;10.852;2023-03-08T11:46:14;31.90;;;12.88;;
41546;SDS011;27271;45.412;10.852;2023-03-08T11:57:11;26.00;;;12.43;;
41546;SDS011;27271;45.412;10.852;2023-03-08T12:00:37;23.35;;;12.63;;
41546;SDS011;27271;45.412;10.852;2023-03-08T12:04:46;28.45;;;13.13;;
41546;SDS011;27271;45.412;10.852;2023-03-08T12:15:48;25.98;;;13.48;;
41546;SDS011;27271;45.412;10.852;2023-03-08T12:22:53;26.63;;;13.48;;
41546;SDS011;27271;45.412;10.852;2023-03-08T12:29:52;21.75;;;11.98;;
41546;SDS011;27271;45.412;10.852;2023-03-08T12:33:18;25.38;;;11.02;;
41546;SDS011;27271;45.412;10.852;2023-03-08T12:36:41;18.33;;;10.13;;
41546;SDS011;27271;45.412;10.852;2023-03-08T12:43:57;20.52;;;9.00;;
41546;SDS011;27271;45.412;10.852;2023-03-08T12:47:21;19.30;;;9.18;;
41546;SDS011;27271;45.412;10.852;2023-03-08T12:54:19;16.45;;;8.32;;
41546;SDS011;27271;45.412;10.852;2023-03-08T12:57:50;15.27;;;8.60;;
41546;SDS011;27271;45.412;10.852;2023-03-08T13:05:16;16.55;;;8.55;;
41546;SDS011;27271;45.412;10.852;2023-03-08T13:08:41;17.02;;;9.50;;
41546;SDS011;27271;45.412;10.852;2023-03-08T13:15:45;10.00;;;5.45;;
41546;SDS011;27271;45.412;10.852;2023-03-08T13:26:20;11.98;;;6.30;;
41546;SDS011;27271;45.412;10.852;2023-03-08T13:30:30;12.63;;;5.80;;
41546;SDS011;27271;45.412;10.852;2023-03-08T13:33:56;8.70;;;4.70;;
41546;SDS011;27271;45.412;10.852;2023-03-08T13:37:23;10.73;;;5.93;;
41546;SDS011;27271;45.412;10.852;2023-03-08T13:40:50;9.73;;;5.88;;
41546;SDS011;27271;45.412;10.852;2023-03-08T13:44:14;10.85;;;5.53;;
41546;SDS011;27271;45.412;10.852;2023-03-08T13:47:46;10.10;;;6.32;;
41546;SDS011;27271;45.412;10.852;2023-03-08T13:51:09;25.52;;;6.55;;
41546;SDS011;27271;45.412;10.852;2023-03-08T13:54:36;13.60;;;6.30;;
41546;SDS011;27271;45.412;10.852;2023-03-08T13:58:05;12.43;;;7.15;;
41546;SDS011;27271;45.412;10.852;2023-03-08T14:01:27;14.02;;;6.72;;
41546;SDS011;27271;45.412;10.852;2023-03-08T14:04:49;14.60;;;6.72;;
41546;SDS011;27271;45.412;10.852;2023-03-08T14:08:17;10.65;;;6.53;;
41546;SDS011;27271;45.412;10.852;2023-03-08T14:11:46;11.88;;;6.57;;
41546;SDS011;27271;45.412;10.852;2023-03-08T14:15:22;14.35;;;6.57;;
41546;SDS011;27271;45.412;10.852;2023-03-08T14:18:44;13.05;;;6.95;;
41546;SDS011;27271;45.412;10.852;2023-03-08T14:22:14;10.98;;;7.03;;
41546;SDS011;27271;45.412;10.852;2023-03-08T14:25:58;11.57;;;6.97;;
41546;SDS011;27271;45.412;10.852;2023-03-08T14:29:23;14.95;;;7.15;;
41546;SDS011;27271;45.412;10.852;2023-03-08T14:32:54;19.47;;;7.97;;
41546;SDS011;27271;45.412;10.852;2023-03-08T14:36:17;17.15;;;7.78;;
41546;SDS011;27271;45.412;10.852;2023-03-08T14:39:40;15.30;;;7.05;;
41546;SDS011;27271;45.412;10.852;2023-03-08T14:43:05;14.10;;;7.28;;
41546;SDS011;27271;45.412;10.852;2023-03-08T14:46:35;13.10;;;7.63;;
41546;SDS011;27271;45.412;10.852;2023-03-08T14:50:01;13.95;;;7.32;;
41546;SDS011;27271;45.412;10.852;2023-03-08T14:53:34;17.08;;;8.32;;
41546;SDS011;27271;45.412;10.852;2023-03-08T14:57:01;15.48;;;7.75;;
41546;SDS011;27271;45.412;10.852;2023-03-08T15:00:54;15.48;;;8.25;;
41546;SDS011;27271;45.412;10.852;2023-03-08T15:04:19;14.20;;;7.78;;
41546;SDS011;27271;45.412;10.852;2023-03-08T15:07:44;17.38;;;8.38;;
41546;SDS011;27271;45.412;10.852;2023-03-08T15:11:08;16.05;;;8.55;;
41546;SDS011;27271;45.412;10.852;2023-03-08T15:14:30;15.25;;;7.95;;
41546;SDS011;27271;45.412;10.852;2023-03-08T15:17:52;14.38;;;7.97;;
41546;SDS011;27271;45.412;10.852;2023-03-08T15:21:15;13.13;;;7.93;;
41546;SDS011;27271;45.412;10.852;2023-03-08T15:24:42;15.30;;;7.53;;
41546;SDS011;27271;45.412;10.852;2023-03-08T15:28:04;14.90;;;7.60;;
41546;SDS011;27271;45.412;10.852;2023-03-08T15:31:26;16.60;;;7.82;;
41546;SDS011;27271;45.412;10.852;2023-03-08T15:34:48;15.65;;;8.20;;
41546;SDS011;27271;45.412;10.852;2023-03-08T15:38:14;19.50;;;8.95;;
41546;SDS011;27271;45.412;10.852;2023-03-08T15:41:37;17.08;;;8.95;;
41546;SDS011;27271;45.412;10.852;2023-03-08T15:44:59;17.02;;;8.15;;
41546;SDS011;27271;45.412;10.852;2023-03-08T15:48:21;17.35;;;9.95;;
41546;SDS011;27271;45.412;10.852;2023-03-08T15:51:43;18.73;;;11.63;;
41546;SDS011;27271;45.412;10.852;2023-03-08T15:55:06;21.50;;;11.93;;
41546;SDS011;27271;45.412;10.852;2023-03-08T15:58:28;18.13;;;8.48;;
41546;SDS011;27271;45.412;10.852;2023-03-08T16:01:50;19.98;;;9.38;;
41546;SDS011;27271;45.412;10.852;2023-03-08T16:05:13;21.80;;;8.25;;
41546;SDS011;27271;45.412;10.852;2023-03-08T16:08:36;17.42;;;8.77;;
41546;SDS011;27271;45.412;10.852;2023-03-08T16:11:58;17.75;;;8.35;;
41546;SDS011;27271;45.412;10.852;2023-03-08T16:15:20;23.60;;;16.30;;
41546;SDS011;27271;45.412;10.852;2023-03-08T16:18:43;23.35;;;12.45;;
41546;SDS011;27271;45.412;10.852;2023-03-08T16:22:05;20.65;;;8.32;;
41546;SDS011;27271;45.412;10.852;2023-03-08T16:25:27;15.93;;;7.82;;
41546;SDS011;27271;45.412;10.852;2023-03-08T16:28:49;19.48;;;9.43;;
41546;SDS011;27271;45.412;10.852;2023-03-08T16:32:12;16.90;;;8.65;;
41546;SDS011;27271;45.412;10.852;2023-03-08T16:35:35;18.35;;;10.27;;
41546;SDS011;27271;45.412;10.852;2023-03-08T16:38:57;18.90;;;8.35;;
41546;SDS011;27271;45.412;10.852;2023-03-08T16:42:19;34.05;;;20.15;;
41546;SDS011;27271;45.412;10.852;2023-03-08T16:45:51;17.33;;;9.20;;
41546;SDS011;27271;45.412;10.852;2023-03-08T16:49:15;23.27;;;11.02;;
41546;SDS011;27271;45.412;10.852;2023-03-08T16:52:38;18.80;;;9.80;;
41546;SDS011;27271;45.412;10.852;2023-03-08T16:56:00;23.15;;;10.55;;
41546;SDS011;27271;45.412;10.852;2023-03-08T16:59:22;17.83;;;8.93;;
41546;SDS011;27271;45.412;10.852;2023-03-08T17:02:44;21.00;;;9.75;;
41546;SDS011;27271;45.412;10.852;2023-03-08T17:06:06;19.33;;;9.60;;
41546;SDS011;27271;45.412;10.852;2023-03-08T17:09:30;19.67;;;10.77;;
41546;SDS011;27271;45.412;10.852;2023-03-08T17:12:52;20.05;;;10.52;;
41546;SDS011;27271;45.412;10.852;2023-03-08T17:16:14;22.08;;;11.25;;
41546;SDS011;27271;45.412;10.852;2023-03-08T17:19:36;24.30;;;10.55;;
41546;SDS011;27271;45.412;10.852;2023-03-08T17:23:01;22.45;;;11.32;;
41546;SDS011;27271;45.412;10.852;2023-03-08T17:26:23;20.92;;;11.02;;
41546;SDS011;27271;45.412;10.852;2023-03-08T17:29:45;20.77;;;9.75;;
41546;SDS011;27271;45.412;10.852;2023-03-08T17:33:08;19.13;;;10.23;;
41546;SDS011;27271;45.412;10.852;2023-03-08T17:36:30;18.90;;;10.07;;
41546;SDS011;27271;45.412;10.852;2023-03-08T17:39:52;28.63;;;10.52;;
41546;SDS011;27271;45.412;10.852;2023-03-08T17:43:14;21.80;;;11.02;;
41546;SDS011;27271;45.412;10.852;2023-03-08T17:46:37;25.10;;;11.20;;
41546;SDS011;27271;45.412;10.852;2023-03-08T17:49:59;25.98;;;13.20;;
41546;SDS011;27271;45.412;10.852;2023-03-08T17:53:21;18.92;;;10.75;;
41546;SDS011;27271;45.412;10.852;2023-03-08T17:56:43;26.05;;;10.82;;
41546;SDS011;27271;45.412;10.852;2023-03-08T18:00:07;22.48;;;11.05;;
41546;SDS011;27271;45.412;10.852;2023-03-08T18:03:32;20.65;;;10.63;;
41546;SDS011;27271;45.412;10.852;2023-03-08T18:06:54;21.02;;;10.32;;
41546;SDS011;27271;45.412;10.852;2023-03-08T18:10:16;21.33;;;11.23;;
41546;SDS011;27271;45.412;10.852;2023-03-08T18:13:38;22.20;;;10.90;;
41546;SDS011;27271;45.412;10.852;2023-03-08T18:17:01;25.27;;;11.25;;
41546;SDS011;27271;45.412;10.852;2023-03-08T18:20:23;25.70;;;12.70;;
41546;SDS011;27271;45.412;10.852;2023-03-08T18:23:46;22.38;;;12.05;;
41546;SDS011;27271;45.412;10.852;2023-03-08T18:27:08;24.83;;;12.52;;
41546;SDS011;27271;45.412;10.852;2023-03-08T18:30:30;26.88;;;12.40;;
41546;SDS011;27271;45.412;10.852;2023-03-08T18:33:52;23.17;;;12.80;;
41546;SDS011;27271;45.412;10.852;2023-03-08T18:37:15;27.58;;;13.52;;
41546;SDS011;27271;45.412;10.852;2023-03-08T18:40:37;22.08;;;12.02;;
41546;SDS011;27271;45.412;10.852;2023-03-08T18:43:59;24.15;;;12.05;;
41546;SDS011;27271;45.412;10.852;2023-03-08T18:47:21;21.00;;;11.63;;
41546;SDS011;27271;45.412;10.852;2023-03-08T18:50:43;23.05;;;12.15;;
41546;SDS011;27271;45.412;10.852;2023-03-08T18:54:06;24.20;;;12.27;;
41546;SDS011;27271;45.412;10.852;2023-03-08T18:57:30;24.58;;;13.00;;
41546;SDS011;27271;45.412;10.852;2023-03-08T19:00:52;30.42;;;12.60;;
41546;SDS011;27271;45.412;10.852;2023-03-08T19:04:23;28.40;;;12.07;;
41546;SDS011;27271;45.412;10.852;2023-03-08T19:07:45;27.08;;;12.73;;
41546;SDS011;27271;45.412;10.852;2023-03-08T19:14:35;25.27;;;13.35;;
41546;SDS011;27271;45.412;10.852;2023-03-08T19:17:57;33.45;;;13.95;;
41546;SDS011;27271;45.412;10.852;2023-03-08T19:21:20;27.77;;;12.68;;
41546;SDS011;27271;45.412;10.852;2023-03-08T19:24:47;26.33;;;13.15;;
41546;SDS011;27271;45.412;10.852;2023-03-08T19:28:09;26.42;;;12.55;;
41546;SDS011;27271;45.412;10.852;2023-03-08T19:31:32;33.53;;;13.82;;
41546;SDS011;27271;45.412;10.852;2023-03-08T19:34:58;27.55;;;13.50;;
41546;SDS011;27271;45.412;10.852;2023-03-08T19:38:22;27.98;;;14.20;;
41546;SDS011;27271;45.412;10.852;2023-03-08T19:41:45;27.45;;;13.75;;
41546;SDS011;27271;45.412;10.852;2023-03-08T19:45:09;25.35;;;12.88;;
41546;SDS011;27271;45.412;10.852;2023-03-08T19:48:33;29.15;;;13.85;;
41546;SDS011;27271;45.412;10.852;2023-03-08T19:51:56;38.42;;;17.90;;
41546;SDS011;27271;45.412;10.852;2023-03-08T19:55:19;25.60;;;12.50;;
41546;SDS011;27271;45.412;10.852;2023-03-08T19:58:41;22.00;;;11.82;;
41546;SDS011;27271;45.412;10.852;2023-03-08T20:02:04;26.20;;;12.48;;
41546;SDS011;27271;45.412;10.852;2023-03-08T20:05:28;22.13;;;12.73;;
41546;SDS011;27271;45.412;10.852;2023-03-08T20:08:51;23.73;;;12.55;;
41546;SDS011;27271;45.412;10.852;2023-03-08T20:12:13;25.30;;;11.90;;
41546;SDS011;27271;45.412;10.852;2023-03-08T20:15:35;24.52;;;12.63;;
41546;SDS011;27271;45.412;10.852;2023-03-08T20:18:58;24.90;;;12.63;;
41546;SDS011;27271;45.412;10.852;2023-03-08T20:22:20;24.08;;;11.73;;
41546;SDS011;27271;45.412;10.852;2023-03-08T20:25:42;25.50;;;11.98;;
41546;SDS011;27271;45.412;10.852;2023-03-08T20:29:05;25.60;;;12.88;;
41546;SDS011;27271;45.412;10.852;2023-03-08T20:32:27;25.58;;;12.40;;
41546;SDS011;27271;45.412;10.852;2023-03-08T20:35:56;26.42;;;14.60;;
41546;SDS011;27271;45.412;10.852;2023-03-08T20:39:19;26.80;;;13.65;;
41546;SDS011;27271;45.412;10.852;2023-03-08T20:42:42;24.02;;;13.15;;
41546;SDS011;27271;45.412;10.852;2023-03-08T20:46:05;23.10;;;13.32;;
41546;SDS011;27271;45.412;10.852;2023-03-08T20:49:29;24.33;;;13.75;;
41546;SDS011;27271;45.412;10.852;2023-03-08T20:52:51;29.27;;;14.35;;
41546;SDS011;27271;45.412;10.852;2023-03-08T20:56:14;27.33;;;13.43;;
41546;SDS011;27271;45.412;10.852;2023-03-08T20:59:38;28.10;;;14.70;;
41546;SDS011;27271;45.412;10.852;2023-03-08T21:03:01;31.55;;;15.10;;
41546;SDS011;27271;45.412;10.852;2023-03-08T21:06:28;40.90;;;24.00;;
41546;SDS011;27271;45.412;10.852;2023-03-08T21:09:51;32.80;;;15.02;;
41546;SDS011;27271;45.412;10.852;2023-03-08T21:13:13;28.92;;;15.00;;
41546;SDS011;27271;45.412;10.852;2023-03-08T21:16:35;30.05;;;14.73;;
41546;SDS011;27271;45.412;10.852;2023-03-08T21:19:58;25.55;;;13.68;;
41546;SDS011;27271;45.412;10.852;2023-03-08T21:23:20;27.98;;;14.70;;
41546;SDS011;27271;45.412;10.852;2023-03-08T21:26:43;23.95;;;12.95;;
41546;SDS011;27271;45.412;10.852;2023-03-08T21:30:06;29.88;;;13.43;;